createdAt,value
2022-12-05T00:00:05.478Z,25.17
2022-12-05T00:02:35.653Z,23.53
2022-12-05T00:05:04.649Z,23.80
2022-12-05T00:07:33.538Z,23.60
2022-12-05T00:10:02.232Z,25.00
2022-12-05T00:12:31.062Z,24.53
2022-12-05T00:14:59.799Z,22.57
2022-12-05T00:17:28.462Z,23.87
2022-12-05T00:19:58.908Z,23.47
2022-12-05T00:22:28.022Z,23.20
2022-12-05T00:24:56.712Z,23.20
2022-12-05T00:27:26.019Z,22.83
2022-12-05T00:29:55.421Z,26.70
2022-12-05T00:32:24.533Z,25.70
2022-12-05T00:34:53.646Z,25.73
2022-12-05T00:37:23.771Z,25.07
2022-12-05T00:39:52.489Z,24.57
2022-12-05T00:42:21.395Z,22.77
2022-12-05T00:44:51.269Z,21.80
2022-12-05T00:47:20.050Z,24.33
2022-12-05T00:49:49.191Z,23.90
2022-12-05T00:52:18.023Z,23.07
2022-12-05T00:54:48.113Z,24.23
2022-12-05T00:57:16.849Z,22.73
2022-12-05T00:59:45.636Z,24.07
2022-12-05T01:02:16.560Z,24.00
2022-12-05T01:04:45.244Z,26.27
2022-12-05T01:07:13.920Z,21.50
2022-12-05T01:09:42.729Z,25.70
2022-12-05T01:12:13.482Z,23.27
2022-12-05T01:14:42.125Z,26.63
2022-12-05T01:17:11.524Z,24.23
2022-12-05T01:19:41.169Z,26.43
2022-12-05T01:22:09.829Z,25.33
2022-12-05T01:24:38.693Z,25.93
2022-12-05T01:27:07.393Z,28.10
2022-12-05T01:29:37.619Z,25.63
2022-12-05T01:32:06.864Z,24.37
2022-12-05T01:34:35.636Z,28.57
2022-12-05T01:37:04.383Z,26.47
2022-12-05T01:39:33.161Z,26.47
2022-12-05T01:42:01.899Z,28.03
2022-12-05T01:45:10.075Z,27.40
2022-12-05T01:47:39.179Z,24.00
2022-12-05T01:50:09.576Z,29.53
2022-12-05T01:52:38.582Z,29.07
2022-12-05T01:55:13.222Z,24.67
2022-12-05T01:57:43.883Z,22.77
2022-12-05T02:00:17.144Z,25.27
2022-12-05T02:02:49.744Z,26.63
2022-12-05T02:05:21.899Z,24.77
2022-12-05T02:07:51.190Z,26.00
2022-12-05T02:10:20.327Z,23.60
2022-12-05T02:12:50.748Z,25.20
2022-12-05T02:15:40.193Z,23.70
2022-12-05T02:18:21.038Z,21.00
2022-12-05T02:21:04.652Z,24.80
2022-12-05T02:24:04.694Z,23.53
2022-12-05T02:26:50.482Z,22.53
2022-12-05T02:29:53.081Z,22.60
2022-12-05T02:32:36.959Z,20.47
2022-12-05T02:35:15.382Z,22.00
2022-12-05T02:37:51.621Z,24.00
2022-12-05T02:40:28.048Z,23.90
2022-12-05T02:43:01.738Z,24.17
2022-12-05T02:45:34.591Z,24.53
2022-12-05T02:48:05.641Z,25.80
2022-12-05T02:50:36.919Z,22.00
2022-12-05T02:53:08.816Z,17.58
2022-12-05T02:55:38.098Z,27.93
2022-12-05T02:58:12.568Z,24.70
2022-12-05T03:00:44.555Z,23.20
2022-12-05T03:03:18.847Z,27.53
2022-12-05T03:05:52.989Z,25.83
2022-12-05T03:08:25.210Z,25.23
2022-12-05T03:10:56.496Z,27.00
2022-12-05T03:13:29.734Z,26.13
2022-12-05T03:16:01.662Z,27.00
2022-12-05T03:18:34.736Z,27.07
2022-12-05T03:21:09.948Z,29.10
2022-12-05T03:23:41.708Z,27.23
2022-12-05T03:26:20.820Z,23.97
2022-12-05T03:28:57.892Z,25.40
2022-12-05T03:31:39.648Z,24.50
2022-12-05T03:34:15.983Z,23.67
2022-12-05T03:36:49.266Z,26.73
2022-12-05T03:39:24.478Z,22.90
2022-12-05T03:42:01.071Z,23.70
2022-12-05T03:44:36.788Z,25.83
2022-12-05T03:47:12.820Z,24.77
2022-12-05T03:49:47.354Z,25.67
2022-12-05T03:52:19.661Z,22.37
2022-12-05T03:54:53.101Z,23.83
2022-12-05T03:57:25.894Z,24.43
2022-12-05T03:59:58.979Z,26.03
2022-12-05T04:02:34.476Z,25.73
2022-12-05T04:05:08.937Z,23.63
2022-12-05T04:07:40.733Z,26.53
2022-12-05T04:10:13.649Z,26.07
2022-12-05T04:12:45.474Z,25.03
2022-12-05T04:15:20.866Z,24.13
2022-12-05T04:17:53.951Z,24.93
2022-12-05T04:20:46.972Z,22.10
2022-12-05T04:23:15.906Z,22.07
2022-12-05T04:25:56.700Z,23.23
2022-12-05T04:28:33.889Z,22.53
2022-12-05T04:31:08.167Z,24.60
2022-12-05T04:33:42.027Z,24.87
2022-12-05T04:36:17.054Z,23.47
2022-12-05T04:38:50.213Z,23.30
2022-12-05T04:41:23.963Z,25.53
2022-12-05T04:43:55.582Z,23.13
2022-12-05T04:46:26.615Z,23.57
2022-12-05T04:49:00.868Z,24.37
2022-12-05T04:51:35.113Z,23.67
2022-12-05T04:54:09.842Z,23.73
2022-12-05T04:56:39.980Z,23.83
2022-12-05T04:59:08.654Z,23.00
2022-12-05T05:01:42.821Z,22.80
2022-12-05T05:04:15.261Z,23.77
2022-12-05T05:06:45.827Z,23.73
2022-12-05T05:09:14.371Z,26.23
2022-12-05T05:11:43.014Z,23.97
2022-12-05T05:14:11.711Z,24.13
2022-12-05T05:16:42.433Z,24.27
2022-12-05T05:19:13.460Z,25.97
2022-12-05T05:21:44.531Z,26.83
2022-12-05T05:24:14.010Z,23.27
2022-12-05T05:26:45.273Z,24.13
2022-12-05T05:29:14.643Z,21.67
2022-12-05T05:31:43.496Z,23.03
2022-12-05T05:34:13.055Z,22.87
2022-12-05T05:36:41.744Z,24.10
2022-12-05T05:39:15.292Z,22.57
2022-12-05T05:41:44.648Z,20.30
2022-12-05T05:44:13.857Z,19.57
2022-12-05T05:46:42.559Z,19.47
2022-12-05T05:49:12.803Z,14.85
2022-12-05T05:51:41.517Z,19.23
2022-12-05T05:54:14.302Z,29.00
2022-12-05T05:56:43.048Z,20.53
2022-12-05T05:59:11.659Z,18.23
2022-12-05T06:01:40.346Z,13.52
2022-12-05T06:04:09.073Z,33.93
2022-12-05T06:06:37.736Z,25.67
2022-12-05T06:09:08.842Z,21.20
2022-12-05T06:11:39.004Z,19.97
2022-12-05T06:14:07.674Z,19.00
2022-12-05T06:16:36.480Z,19.40
2022-12-05T06:19:05.290Z,20.50
2022-12-05T06:21:33.859Z,21.13
2022-12-05T06:24:02.585Z,25.53
2022-12-05T06:26:31.155Z,22.43
2022-12-05T06:29:01.258Z,22.43
2022-12-05T06:31:31.955Z,22.27
2022-12-05T06:34:03.319Z,21.73
2022-12-05T06:36:32.575Z,23.67
2022-12-05T06:39:01.941Z,22.37
2022-12-05T06:41:30.666Z,21.87
2022-12-05T06:44:02.572Z,25.17
2022-12-05T06:46:31.584Z,22.60
2022-12-05T06:49:01.096Z,26.17
2022-12-05T06:51:29.785Z,21.50
2022-12-05T06:53:58.838Z,22.67
2022-12-05T06:56:27.678Z,23.57
2022-12-05T06:58:56.524Z,20.80
2022-12-05T07:01:42.973Z,18.90
2022-12-05T07:04:16.949Z,22.20
2022-12-05T07:06:50.482Z,20.43
2022-12-05T07:09:21.120Z,22.87
2022-12-05T07:11:50.493Z,21.40
2022-12-05T07:14:45.847Z,23.03
2022-12-05T07:17:09.919Z,23.87
2022-12-05T07:19:38.612Z,21.60
2022-12-05T07:22:10.740Z,15.73
2022-12-05T07:24:44.586Z,33.10
2022-12-05T07:27:13.932Z,23.47
2022-12-05T07:29:42.820Z,16.63
2022-12-05T07:32:13.008Z,18.50
2022-12-05T07:34:42.459Z,32.10
2022-12-05T07:37:11.159Z,25.53
2022-12-05T07:39:39.748Z,22.90
2022-12-05T07:42:08.445Z,15.77
2022-12-05T07:44:56.891Z,29.60
2022-12-05T07:47:26.998Z,32.10
2022-12-05T07:49:55.827Z,26.00
2022-12-05T07:52:26.136Z,25.47
2022-12-05T07:54:54.828Z,25.93
2022-12-05T07:57:23.455Z,24.67
2022-12-05T07:59:52.108Z,25.80
2022-12-05T08:02:20.821Z,24.03
2022-12-05T08:04:51.361Z,25.03
2022-12-05T08:07:20.028Z,27.13
2022-12-05T08:10:03.451Z,30.57
2022-12-05T08:12:32.379Z,27.07
2022-12-05T08:15:03.103Z,26.33
2022-12-05T08:17:35.409Z,27.93
2022-12-05T08:20:06.947Z,32.17
2022-12-05T08:22:35.729Z,32.37
2022-12-05T08:25:04.861Z,27.37
2022-12-05T08:27:33.664Z,30.13
2022-12-05T08:30:02.805Z,28.50
2022-12-05T08:32:31.559Z,27.77
2022-12-05T08:35:00.247Z,24.77
2022-12-05T08:37:30.781Z,19.10
2022-12-05T08:39:59.870Z,21.23
2022-12-05T08:42:29.160Z,35.43
2022-12-05T08:44:58.014Z,30.60
2022-12-05T08:47:27.519Z,27.90
2022-12-05T08:49:56.334Z,27.53
2022-12-05T08:52:25.180Z,28.93
2022-12-05T08:54:55.919Z,26.80
2022-12-05T08:57:24.738Z,24.27
2022-12-05T08:59:53.370Z,27.13
2022-12-05T09:02:22.069Z,26.23
2022-12-05T09:04:53.992Z,26.23
2022-12-05T09:07:22.819Z,28.60
2022-12-05T09:09:52.590Z,30.13
2022-12-05T09:12:22.733Z,32.50
2022-12-05T09:14:51.510Z,32.07
2022-12-05T09:17:20.202Z,30.07
2022-12-05T09:19:52.972Z,28.87
2022-12-05T09:22:26.008Z,31.83
2022-12-05T09:24:55.001Z,30.50
2022-12-05T09:27:25.311Z,31.20
2022-12-05T09:29:53.943Z,28.50
2022-12-05T09:32:22.601Z,30.53
2022-12-05T09:34:51.400Z,29.93
2022-12-05T09:37:38.155Z,29.27
2022-12-05T09:40:09.754Z,27.40
2022-12-05T09:42:53.040Z,29.40
2022-12-05T09:45:27.191Z,26.67
2022-12-05T09:48:00.940Z,29.90
2022-12-05T09:50:35.339Z,24.77
2022-12-05T09:53:13.030Z,26.93
2022-12-05T09:55:49.036Z,29.87
2022-12-05T09:58:41.448Z,26.77
2022-12-05T10:01:28.820Z,24.80
2022-12-05T10:04:33.580Z,25.93
2022-12-05T10:07:11.197Z,27.40
2022-12-05T10:09:55.379Z,24.53
2022-12-05T10:12:54.003Z,24.87
2022-12-05T10:15:32.474Z,26.93
2022-12-05T10:18:05.586Z,32.67
2022-12-05T10:20:38.058Z,28.47
2022-12-05T10:23:28.190Z,25.83
2022-12-05T10:26:05.396Z,24.23
2022-12-05T10:28:40.068Z,30.43
2022-12-05T10:31:15.731Z,28.47
2022-12-05T10:33:49.202Z,32.83
2022-12-05T10:36:18.101Z,28.10
2022-12-05T10:38:47.274Z,39.07
2022-12-05T10:41:16.755Z,32.37
2022-12-05T10:43:49.414Z,73.20
2022-12-05T10:46:19.870Z,34.77
2022-12-05T10:48:48.606Z,32.97
2022-12-05T10:51:19.820Z,46.40
2022-12-05T10:53:50.993Z,35.27
2022-12-05T10:56:44.438Z,45.97
2022-12-05T10:59:15.214Z,31.07
2022-12-05T11:01:52.711Z,28.77
2022-12-05T11:04:27.975Z,31.23
2022-12-05T11:07:00.108Z,87.37
2022-12-05T11:09:31.164Z,30.77
2022-12-05T11:12:07.254Z,33.77
2022-12-05T11:14:36.629Z,32.67
2022-12-05T11:17:07.176Z,33.47
2022-12-05T11:19:37.520Z,34.50
2022-12-05T11:22:08.221Z,37.10
2022-12-05T11:24:38.495Z,32.13
2022-12-05T11:27:23.393Z,34.57
2022-12-05T11:30:01.717Z,35.33
2022-12-05T11:32:33.734Z,30.37
2022-12-05T11:35:24.416Z,32.50
2022-12-05T11:37:58.134Z,29.60
2022-12-05T11:40:38.497Z,30.67
2022-12-05T11:43:38.937Z,30.33
2022-12-05T11:46:20.153Z,30.03
2022-12-05T11:49:07.109Z,29.27
2022-12-05T11:51:41.089Z,27.43
2022-12-05T11:57:58.349Z,27.27
2022-12-05T12:00:34.561Z,29.50
2022-12-05T12:03:29.817Z,27.80
2022-12-05T12:06:20.586Z,29.53
2022-12-05T12:09:02.308Z,32.37
2022-12-05T12:11:38.079Z,30.20
2022-12-05T12:14:16.748Z,31.73
2022-12-05T12:16:56.289Z,30.93
2022-12-05T12:19:40.224Z,31.57
2022-12-05T12:22:31.291Z,30.20
2022-12-05T12:25:13.357Z,30.90
2022-12-05T12:27:54.134Z,28.93
2022-12-05T12:30:28.775Z,31.07
2022-12-05T12:33:06.198Z,36.40
2022-12-05T12:35:46.537Z,33.47
2022-12-05T12:38:45.708Z,23.13
2022-12-05T12:41:28.417Z,24.52
2022-12-05T12:44:09.307Z,27.33
2022-12-05T12:46:46.220Z,22.38
2022-12-05T12:49:37.177Z,20.83
2022-12-05T12:52:12.565Z,22.13
2022-12-05T12:55:04.641Z,24.90
2022-12-05T12:57:47.154Z,21.95
2022-12-05T13:00:25.281Z,39.38
2022-12-05T13:03:00.741Z,24.08
2022-12-05T13:05:34.932Z,32.28
2022-12-05T13:08:11.770Z,23.10
2022-12-05T13:10:45.422Z,42.47
2022-12-05T13:13:19.587Z,41.67
2022-12-05T13:15:52.470Z,47.43
2022-12-05T13:18:24.286Z,55.20
2022-12-05T13:20:55.338Z,40.33
2022-12-05T13:23:27.015Z,54.47
2022-12-05T13:26:00.313Z,65.00
2022-12-05T13:28:31.562Z,32.03
2022-12-05T13:31:06.634Z,25.17
2022-12-05T13:33:38.242Z,34.93
2022-12-05T13:36:28.547Z,35.73
2022-12-05T13:39:19.730Z,23.23
2022-12-05T13:42:09.978Z,56.10
2022-12-05T13:44:42.207Z,38.93
2022-12-05T13:47:24.504Z,41.53
2022-12-05T13:49:56.518Z,35.97
2022-12-05T13:52:30.242Z,38.27
2022-12-05T13:55:04.404Z,51.17
2022-12-05T13:57:56.327Z,33.70
2022-12-05T14:00:31.396Z,33.73
2022-12-05T14:03:05.163Z,32.43
2022-12-05T14:05:43.293Z,38.03
2022-12-05T14:08:45.384Z,34.47
2022-12-05T14:11:14.233Z,34.07
2022-12-05T14:13:46.439Z,37.33
2022-12-05T14:16:46.254Z,35.50
2022-12-05T14:20:04.227Z,34.03
2022-12-05T14:22:58.998Z,31.27
2022-12-05T14:25:58.197Z,34.33
2022-12-05T14:28:48.280Z,34.37
2022-12-05T14:31:35.255Z,35.13
2022-12-05T14:34:16.686Z,35.23
2022-12-05T14:36:55.630Z,36.50
2022-12-05T14:39:31.502Z,37.13
2022-12-05T14:42:02.332Z,36.90
2022-12-05T14:44:32.904Z,37.50
2022-12-05T14:47:06.150Z,35.47
2022-12-05T14:50:04.774Z,32.67
2022-12-05T14:52:34.637Z,30.60
2022-12-05T14:55:13.044Z,33.40
2022-12-05T14:57:49.059Z,32.03
2022-12-05T15:00:24.052Z,33.00
2022-12-05T15:02:57.541Z,33.77
2022-12-05T15:05:30.089Z,38.70
2022-12-05T15:08:00.727Z,39.70
2022-12-05T15:10:34.630Z,34.57
2022-12-05T15:13:06.766Z,34.27
2022-12-05T15:15:43.189Z,43.13
2022-12-05T15:18:21.295Z,35.80
2022-12-05T15:20:55.961Z,37.17
2022-12-05T15:23:41.508Z,37.27
2022-12-05T15:29:11.716Z,31.97
2022-12-05T15:31:45.920Z,41.83
2022-12-05T15:34:20.372Z,41.83
2022-12-05T15:36:53.552Z,40.87
2022-12-05T15:39:25.977Z,43.47
2022-12-05T15:41:55.029Z,36.47
2022-12-05T15:44:28.199Z,33.73
2022-12-05T15:46:58.677Z,34.47
2022-12-05T15:49:30.167Z,32.57
2022-12-05T15:52:15.674Z,33.67
2022-12-05T15:54:45.956Z,36.17
2022-12-05T15:57:20.285Z,36.93
2022-12-05T15:59:53.414Z,37.37
2022-12-05T16:02:27.262Z,39.73
2022-12-05T16:04:59.758Z,33.30
2022-12-05T16:07:31.570Z,36.40
2022-12-05T16:10:02.509Z,37.37
2022-12-05T16:12:37.191Z,26.92
2022-12-05T16:15:14.225Z,28.30
2022-12-05T16:17:46.912Z,40.60
2022-12-05T16:20:31.220Z,37.87
2022-12-05T16:23:03.311Z,36.43
2022-12-05T16:25:33.910Z,36.47
2022-12-05T16:28:05.731Z,39.53
2022-12-05T16:30:35.125Z,41.93
2022-12-05T16:33:06.721Z,43.47
2022-12-05T16:35:42.252Z,37.20
2022-12-05T16:38:16.286Z,41.60
2022-12-05T16:40:55.482Z,40.77
2022-12-05T16:43:29.399Z,38.30
2022-12-05T16:46:00.061Z,42.27
2022-12-05T16:48:30.071Z,39.07
2022-12-05T16:51:19.615Z,41.90
2022-12-05T16:53:50.346Z,38.10
2022-12-05T16:56:22.381Z,36.43
2022-12-05T16:58:51.601Z,34.40
2022-12-05T17:01:22.620Z,39.07
2022-12-05T17:03:51.717Z,42.80
2022-12-05T17:06:23.491Z,40.23
2022-12-05T17:08:52.915Z,43.07
2022-12-05T17:11:24.781Z,45.90
2022-12-05T17:13:54.141Z,39.40
2022-12-05T17:16:23.441Z,35.30
2022-12-05T17:18:52.286Z,39.07
2022-12-05T17:21:25.508Z,37.83
2022-12-05T17:23:54.240Z,35.23
2022-12-05T17:26:23.799Z,36.63
2022-12-05T17:28:52.895Z,35.83
2022-12-05T17:31:24.325Z,37.77
2022-12-05T17:33:54.884Z,37.73
2022-12-05T17:36:25.501Z,47.80
2022-12-05T17:38:54.232Z,51.03
2022-12-05T17:41:24.567Z,52.07
2022-12-05T17:43:53.484Z,47.63
2022-12-05T17:46:23.636Z,41.87
2022-12-05T17:48:53.239Z,49.10
2022-12-05T17:51:22.883Z,43.83
2022-12-05T17:53:54.696Z,39.30
2022-12-05T17:56:23.988Z,38.40
2022-12-05T17:58:52.662Z,34.23
2022-12-05T18:01:22.448Z,37.40
2022-12-05T18:03:51.228Z,37.57
2022-12-05T18:06:20.032Z,36.53
2022-12-05T18:08:50.120Z,37.63
2022-12-05T18:11:20.453Z,37.63
2022-12-05T18:13:49.703Z,40.07
2022-12-05T18:16:18.998Z,38.83
2022-12-05T18:18:47.838Z,34.73
2022-12-05T18:21:16.569Z,37.30
2022-12-05T18:23:45.201Z,39.00
2022-12-05T18:26:14.090Z,36.40
2022-12-05T18:28:45.233Z,35.40
2022-12-05T18:31:16.378Z,42.37
2022-12-05T18:33:46.220Z,42.37
2022-12-05T18:36:17.903Z,38.83
2022-12-05T18:38:52.180Z,49.63
2022-12-05T18:41:23.627Z,38.90
2022-12-05T18:43:53.917Z,41.23
2022-12-05T18:46:22.909Z,39.10
2022-12-05T18:48:51.611Z,47.60
2022-12-05T18:51:22.952Z,49.77
2022-12-05T18:53:53.738Z,46.73
2022-12-05T18:56:24.975Z,48.03
2022-12-05T18:58:57.902Z,49.40
2022-12-05T19:01:28.054Z,47.80
2022-12-05T19:03:58.231Z,44.23
2022-12-05T19:06:29.984Z,41.63
2022-12-05T19:09:02.098Z,40.67
2022-12-05T19:11:31.395Z,43.67
2022-12-05T19:14:03.348Z,40.53
2022-12-05T19:16:34.366Z,40.83
2022-12-05T19:19:05.026Z,38.90
2022-12-05T19:21:35.023Z,46.50
2022-12-05T19:24:05.380Z,47.03
2022-12-05T19:26:34.301Z,45.43
2022-12-05T19:29:04.956Z,41.07
2022-12-05T19:31:35.992Z,42.63
2022-12-05T19:34:06.836Z,42.87
2022-12-05T19:36:37.576Z,39.07
2022-12-05T19:39:10.512Z,42.30
2022-12-05T19:41:39.174Z,49.80
2022-12-05T19:44:09.561Z,47.23
2022-12-05T19:46:38.782Z,39.80
2022-12-05T19:49:09.864Z,42.10
2022-12-05T19:51:38.982Z,39.17
2022-12-05T19:54:08.903Z,47.47
2022-12-05T19:56:38.371Z,44.63
2022-12-05T19:59:09.328Z,41.70
2022-12-05T20:01:40.585Z,44.67
2022-12-05T20:04:11.225Z,42.13
2022-12-05T20:06:41.670Z,41.97
2022-12-05T20:09:12.577Z,42.10
2022-12-05T20:11:43.773Z,43.60
2022-12-05T20:14:15.118Z,40.60
2022-12-05T20:16:44.126Z,41.57
2022-12-05T20:19:13.422Z,42.30
2022-12-05T20:21:42.224Z,43.43
2022-12-05T20:24:11.699Z,42.13
2022-12-05T20:26:43.140Z,41.40
2022-12-05T20:29:13.894Z,41.70
2022-12-05T20:31:44.150Z,42.10
2022-12-05T20:34:16.062Z,41.93
2022-12-05T20:36:45.134Z,43.87
2022-12-05T20:39:16.453Z,42.40
2022-12-05T20:41:45.819Z,47.17
2022-12-05T20:44:17.539Z,43.80
2022-12-05T20:46:47.196Z,43.20
2022-12-05T20:49:16.187Z,47.30
2022-12-05T20:51:47.354Z,44.50
2022-12-05T20:54:18.582Z,43.87
2022-12-05T20:56:47.610Z,49.17
2022-12-05T20:59:17.962Z,48.07
2022-12-05T21:01:47.721Z,44.87
2022-12-05T21:04:16.824Z,44.00
2022-12-05T21:06:46.769Z,44.57
2022-12-05T21:09:26.985Z,43.23
2022-12-05T21:11:55.741Z,44.00
2022-12-05T21:14:26.143Z,44.93
2022-12-05T21:16:55.013Z,45.77
2022-12-05T21:19:24.169Z,43.33
2022-12-05T21:21:54.690Z,42.40
2022-12-05T21:24:23.334Z,48.87
2022-12-05T21:26:52.253Z,47.20
2022-12-05T21:29:21.317Z,42.03
2022-12-05T21:31:52.901Z,43.97
2022-12-05T21:34:22.061Z,40.43
2022-12-05T21:36:51.031Z,41.20
2022-12-05T21:39:20.149Z,43.00
2022-12-05T21:41:48.753Z,42.70
2022-12-05T21:44:19.739Z,42.40
2022-12-05T21:46:49.900Z,41.20
2022-12-05T21:49:20.005Z,39.07
2022-12-05T21:51:48.740Z,42.73
2022-12-05T21:54:17.436Z,41.60
2022-12-05T21:56:46.683Z,42.40
2022-12-05T21:59:15.359Z,41.73
2022-12-05T22:01:44.081Z,42.00
2022-12-05T22:04:12.745Z,40.17
2022-12-05T22:06:43.681Z,39.10
2022-12-05T22:09:12.276Z,45.87
2022-12-05T22:11:40.950Z,44.17
2022-12-05T22:14:09.860Z,41.80
2022-12-05T22:16:38.532Z,38.37
2022-12-05T22:19:07.640Z,41.27
2022-12-05T22:21:36.264Z,45.27
2022-12-05T22:24:06.717Z,41.60
2022-12-05T22:26:35.898Z,42.13
2022-12-05T22:29:05.740Z,44.50
2022-12-05T22:31:34.472Z,45.00
2022-12-05T22:34:03.837Z,43.67
2022-12-05T22:36:33.157Z,42.47
2022-12-05T22:39:06.560Z,51.53
2022-12-05T22:41:37.746Z,47.30
2022-12-05T22:44:06.532Z,42.80
2022-12-05T22:46:35.140Z,27.55
2022-12-05T22:49:06.019Z,28.47
2022-12-05T22:51:35.542Z,37.70
2022-12-05T22:54:06.586Z,42.00
2022-12-05T22:56:35.433Z,38.53
2022-12-05T22:59:04.204Z,38.63
2022-12-05T23:01:36.686Z,40.30
2022-12-05T23:04:07.710Z,42.17
2022-12-05T23:06:39.022Z,40.53
2022-12-05T23:09:11.057Z,40.67
2022-12-05T23:11:40.118Z,42.83
2022-12-05T23:14:09.125Z,48.17
2022-12-05T23:16:38.200Z,40.70
2022-12-05T23:19:08.388Z,40.93
2022-12-05T23:21:38.841Z,39.50
2022-12-05T23:24:10.514Z,40.83
2022-12-05T23:26:41.489Z,41.80
2022-12-05T23:29:12.364Z,40.73
2022-12-05T23:31:41.829Z,39.77
2022-12-05T23:34:11.369Z,40.10
2022-12-05T23:36:40.819Z,38.90
2022-12-05T23:39:11.260Z,40.00
2022-12-05T23:41:40.466Z,40.60
2022-12-05T23:44:09.486Z,40.63
2022-12-05T23:46:38.664Z,43.10
2022-12-05T23:49:07.420Z,40.50
2022-12-05T23:51:40.336Z,41.17
2022-12-05T23:54:12.556Z,42.07
2022-12-05T23:56:41.461Z,45.10
2022-12-05T23:59:10.730Z,41.90
